Time;durP1;ratioP1;P1;durP2;ratioP2;P2;SDS_P1;SDS_P2;PMS_P1;PMS_P2;Temp;Humidity;BMP_temperature;BMP_pressure;BME280_temperature;BME280_humidity;BME280_pressure;Samples;Min_cycle;Max_cycle;Signal;HPM_P1;HPM_P2
2022/06/29 06:09:48;;;;;;;;;;;;;;;20.93;100.00;98019.56;5004256;24;19996;-70
2022/06/29 06:12:16;;;;;;;;;;;;;;;20.98;100.00;98018.91;4821751;29;20232;-70
2022/06/29 06:14:44;;;;;;;;;;;;;;;21.03;100.00;98020.34;4814528;29;19964;-70
2022/06/29 06:17:11;;;;;;;;;;;;;;;21.05;100.00;98017.81;4818871;29;20243;-71
2022/06/29 06:19:38;;;;;;;;;;;;;;;21.16;100.00;98010.41;4817257;29;19970;-71
2022/06/29 06:22:06;;;;;;;;;;;;;;;21.19;100.00;98003.75;4801587;29;19958;-71
2022/06/29 06:24:33;;;;;;;;;;;;;;;21.26;100.00;98008.31;4818236;29;20342;-71
2022/06/29 06:27:00;;;;;;;;;;;;;;;21.37;100.00;98009.41;4813301;29;19949;-71
2022/06/29 06:29:27;;;;;;;;;;;;;;;21.40;100.00;98019.03;4812233;29;19979;-71
2022/06/29 06:31:55;;;;;;;;;;;;;;;21.48;100.00;98011.75;4825949;29;19954;-71
2022/06/29 06:34:23;;;;;;;;;;;;;;;21.64;100.00;98013.47;4826976;29;19971;-71
2022/06/29 06:36:50;;;;;;;;;;;;;;;21.68;100.00;98012.03;4826489;29;19951;-71
2022/06/29 06:39:17;;;;;;;;;;;;;;;21.82;100.00;98016.22;4824131;29;19964;-71
2022/06/29 06:41:44;;;;;;;;;;;;;;;21.99;100.00;98012.56;4808740;29;19953;-71
2022/06/29 06:44:12;;;;;;;;;;;;;;;22.20;100.00;98005.03;4819182;29;20256;-71
2022/06/29 06:46:41;;;;;;;;;;;;;;;22.32;100.00;98009.72;4824645;29;19955;-71
2022/06/29 06:49:08;;;;;;;;;;;;;;;22.35;100.00;98005.88;4817737;29;19948;-71
2022/06/29 06:51:35;;;;;;;;;;;;;;;22.46;100.00;98013.88;4822622;29;20348;-70
2022/06/29 06:54:03;;;;;;;;;;;;;;;22.60;100.00;98013.16;4822054;29;19948;-70
2022/06/29 06:56:30;;;;;;;;;;;;;;;22.69;100.00;98016.00;4819269;29;19958;-70
2022/06/29 06:58:57;;;;;;;;;;;;;;;22.74;100.00;98006.78;4808740;29;20393;-70
2022/06/29 07:01:24;;;;;;;;;;;;;;;22.94;100.00;98009.00;4808472;29;19949;-70
2022/06/29 07:03:52;;;;;;;;;;;;;;;23.01;100.00;98009.38;4815009;29;19950;-70
2022/06/29 07:06:19;;;;;;;;;;;;;;;22.85;100.00;98012.69;4807615;29;19957;-70
2022/06/29 07:08:46;;;;;;;;;;;;;;;22.85;100.00;98015.53;4826396;29;19969;-70
2022/06/29 07:11:14;;;;;;;;;;;;;;;22.88;100.00;98017.41;4822317;29;19957;-70
2022/06/29 07:13:41;;;;;;;;;;;;;;;22.92;100.00;98006.59;4825925;29;19949;-70
2022/06/29 07:16:08;;;;;;;;;;;;;;;22.92;100.00;98020.06;4822859;29;19963;-70
2022/06/29 07:18:36;;;;;;;;;;;;;;;22.88;100.00;98020.28;4810857;29;19966;-70
2022/06/29 07:21:03;;;;;;;;;;;;;;;22.99;100.00;98014.78;4817879;29;19948;-70
2022/06/29 07:23:30;;;;;;;;;;;;;;;23.04;100.00;98021.88;4825585;29;19956;-70
2022/06/29 07:25:58;;;;;;;;;;;;;;;23.20;100.00;98021.41;4825576;29;19949;-70
2022/06/29 07:28:25;;;;;;;;;;;;;;;23.51;100.00;98019.72;4825618;29;19954;-70
2022/06/29 07:30:52;;;;;;;;;;;;;;;23.67;100.00;98014.78;4826303;29;19947;-70
2022/06/29 07:33:19;;;;;;;;;;;;;;;23.89;100.00;98015.94;4825732;29;20258;-70
2022/06/29 07:35:47;;;;;;;;;;;;;;;24.09;100.00;98020.97;4825992;29;19952;-70
2022/06/29 07:38:14;;;;;;;;;;;;;;;24.38;100.00;98012.31;4825498;29;20627;-70
2022/06/29 07:40:41;;;;;;;;;;;;;;;24.74;100.00;98016.72;4825883;29;19960;-70
2022/06/29 07:43:08;;;;;;;;;;;;;;;24.87;100.00;98013.53;4826252;29;19943;-70
2022/06/29 07:45:36;;;;;;;;;;;;;;;25.10;100.00;98023.94;4825386;29;19992;-70
2022/06/29 07:48:03;;;;;;;;;;;;;;;25.19;100.00;98015.97;4826321;29;19944;-70
2022/06/29 07:50:31;;;;;;;;;;;;;;;25.40;100.00;98011.81;4825726;29;19952;-70
2022/06/29 07:52:58;;;;;;;;;;;;;;;25.61;100.00;98006.81;4826288;29;20442;-70
2022/06/29 07:55:26;;;;;;;;;;;;;;;25.67;100.00;98007.69;4825643;29;19956;-70
2022/06/29 07:57:53;;;;;;;;;;;;;;;25.64;100.00;98007.88;4825708;29;20273;-70
2022/06/29 08:00:22;;;;;;;;;;;;;;;25.62;100.00;98001.88;4825078;29;19972;-70
2022/06/29 08:02:51;;;;;;;;;;;;;;;25.71;100.00;98004.56;4825463;29;19956;-70
2022/06/29 08:05:19;;;;;;;;;;;;;;;25.89;100.00;98007.06;4825293;29;19952;-70
2022/06/29 08:07:47;;;;;;;;;;;;;;;25.86;100.00;98008.09;4825608;29;19950;-70
2022/06/29 08:10:14;;;;;;;;;;;;;;;25.84;100.00;98002.09;4825708;29;19983;-70
2022/06/29 08:12:42;;;;;;;;;;;;;;;26.01;100.00;98008.75;4825480;29;20251;-70
2022/06/29 08:15:09;;;;;;;;;;;;;;;26.10;100.00;97995.00;4826043;29;19944;-70
2022/06/29 08:17:36;;;;;;;;;;;;;;;26.30;100.00;97999.06;4825138;29;19953;-70
2022/06/29 08:20:04;;;;;;;;;;;;;;;26.26;100.00;97998.53;4825393;29;19969;-70
2022/06/29 08:22:32;;;;;;;;;;;;;;;26.26;100.00;98010.78;4825300;29;19948;-70
2022/06/29 08:24:59;;;;;;;;;;;;;;;26.29;100.00;98004.00;4825201;29;19948;-70
2022/06/29 08:27:27;;;;;;;;;;;;;;;26.30;100.00;98005.59;4825630;29;20340;-70
2022/06/29 08:30:11;;;;;;;;;;;;;;;26.47;100.00;98003.63;4825417;29;20249;-70
2022/06/29 08:32:42;;;;;;;;;;;;;;;26.43;100.00;98008.81;4832418;29;19956;-70
2022/06/29 08:35:09;;;;;;;;;;;;;;;26.41;100.00;98004.88;4814203;29;19959;-70
2022/06/29 08:37:37;;;;;;;;;;;;;;;26.55;100.00;98013.31;4825226;29;19949;-70
2022/06/29 08:40:08;;;;;;;;;;;;;;;26.54;100.00;98011.72;4834166;29;19967;-70
2022/06/29 08:42:36;;;;;;;;;;;;;;;26.66;100.00;98004.75;4825359;29;20242;-70
2022/06/29 08:45:04;;;;;;;;;;;;;;;26.70;100.00;98007.41;4825574;29;20332;-70
2022/06/29 08:47:32;;;;;;;;;;;;;;;26.73;100.00;98009.22;4824796;29;19948;-70
2022/06/29 08:50:02;;;;;;;;;;;;;;;26.85;100.00;98010.88;4811970;29;19964;-70
2022/06/29 08:52:30;;;;;;;;;;;;;;;26.76;100.00;98004.56;4823749;29;19952;-70
2022/06/29 08:54:58;;;;;;;;;;;;;;;26.78;100.00;98008.50;4824547;29;20412;-70
2022/06/29 08:57:26;;;;;;;;;;;;;;;26.89;100.00;98010.63;4812195;29;19951;-70
2022/06/29 08:59:54;;;;;;;;;;;;;;;26.87;100.00;98010.38;4828070;29;19969;-70
2022/06/29 09:02:26;;;;;;;;;;;;;;;26.90;100.00;98009.34;4828486;29;19952;-70
2022/06/29 09:04:54;;;;;;;;;;;;;;;26.86;100.00;98008.78;4827913;29;19947;-71
2022/06/29 09:07:23;;;;;;;;;;;;;;;26.96;100.00;98001.53;4827509;29;19960;-70
2022/06/29 09:10:00;;;;;;;;;;;;;;;26.90;100.00;98004.38;4822003;29;19984;-70
2022/06/29 09:12:28;;;;;;;;;;;;;;;27.07;100.00;98007.31;4824175;29;19980;-70
2022/06/29 09:14:56;;;;;;;;;;;;;;;27.11;100.00;98005.78;4833011;29;19958;-70
2022/06/29 09:17:24;;;;;;;;;;;;;;;27.21;100.00;98003.44;4825084;29;20368;-70
2022/06/29 09:19:56;;;;;;;;;;;;;;;27.30;100.00;98011.81;4836532;29;19965;-70
2022/06/29 09:22:39;;;;;;;;;;;;;;;27.31;100.00;97999.81;4819695;29;19967;-71
2022/06/29 09:25:20;;;;;;;;;;;;;;;27.27;100.00;98005.03;4827920;29;19953;-70
2022/06/29 09:27:48;;;;;;;;;;;;;;;27.43;100.00;98006.41;4823431;29;20338;-71
2022/06/29 09:30:27;;;;;;;;;;;;;;;27.34;100.00;98015.22;4828210;29;20004;-71
2022/06/29 09:33:03;;;;;;;;;;;;;;;27.41;100.00;98011.91;4827429;29;19951;-71
2022/06/29 09:35:31;;;;;;;;;;;;;;;27.47;100.00;98009.81;4825581;29;19950;-71
2022/06/29 09:38:17;;;;;;;;;;;;;;;27.52;100.00;98016.84;4823524;29;19957;-71
2022/06/29 09:41:13;;;;;;;;;;;;;;;27.63;100.00;98006.16;4815004;29;20443;-72
2022/06/29 09:43:45;;;;;;;;;;;;;;;27.62;100.00;98000.94;4797674;29;19955;-71
2022/06/29 09:46:13;;;;;;;;;;;;;;;27.60;100.00;98000.69;4827343;29;19955;-71
2022/06/29 09:48:42;;;;;;;;;;;;;;;27.69;100.00;98009.84;4811301;29;19956;-71
2022/06/29 09:54:10;;;;;;;;;;;;;;;27.68;100.00;98001.75;4825876;29;19948;-71
2022/06/29 09:56:44;;;;;;;;;;;;;;;27.40;100.00;98006.66;4820398;29;19949;-70
2022/06/29 09:59:13;;;;;;;;;;;;;;;27.31;100.00;97999.03;4826568;29;19951;-70
2022/06/29 10:04:27;;;;;;;;;;;;;;;27.57;100.00;97999.63;4826540;29;19956;-70
2022/06/29 10:06:55;;;;;;;;;;;;;;;27.71;100.00;97992.06;4822775;29;19982;-70
2022/06/29 10:09:22;;;;;;;;;;;;;;;27.72;100.00;98002.28;4827273;29;19976;-70
2022/06/29 10:14:41;;;;;;;;;;;;;;;27.49;100.00;97995.69;4826168;29;19957;-70
2022/06/29 10:17:26;;;;;;;;;;;;;;;27.76;100.00;97997.81;4819797;29;19947;-70
2022/06/29 10:20:09;;;;;;;;;;;;;;;27.91;100.00;98001.22;4815492;29;19968;-70
2022/06/29 10:22:36;;;;;;;;;;;;;;;27.92;100.00;97997.06;4818694;29;19960;-71
2022/06/29 10:25:05;;;;;;;;;;;;;;;27.98;100.00;97989.22;4826683;29;19951;-71
2022/06/29 10:27:32;;;;;;;;;;;;;;;28.00;100.00;97982.97;4826190;29;19947;-71
2022/06/29 10:30:18;;;;;;;;;;;;;;;28.12;100.00;97989.50;4827793;29;19952;-71
2022/06/29 10:32:45;;;;;;;;;;;;;;;28.19;100.00;97986.09;4827504;29;19951;-71
2022/06/29 10:35:13;;;;;;;;;;;;;;;28.02;100.00;97979.56;4834306;29;19955;-71
2022/06/29 10:37:48;;;;;;;;;;;;;;;28.19;100.00;97978.25;4828120;29;19948;-71
2022/06/29 10:40:17;;;;;;;;;;;;;;;28.10;100.00;97978.50;4828858;29;19970;-71
2022/06/29 10:45:37;;;;;;;;;;;;;;;28.22;100.00;97974.31;4826836;29;19958;-71
2022/06/29 10:48:07;;;;;;;;;;;;;;;28.37;100.00;97974.81;4823963;29;20363;-71
2022/06/29 10:50:35;;;;;;;;;;;;;;;28.34;100.00;97975.84;4825674;29;19954;-70
2022/06/29 10:53:13;;;;;;;;;;;;;;;28.23;100.00;97966.47;4818982;29;19949;-70
2022/06/29 10:55:44;;;;;;;;;;;;;;;28.04;100.00;97971.19;4821680;29;19960;-71
2022/06/29 10:58:12;;;;;;;;;;;;;;;28.18;100.00;97981.63;4822476;29;19948;-71
2022/06/29 11:00:39;;;;;;;;;;;;;;;28.31;100.00;97973.25;4825984;29;19971;-71
2022/06/29 11:03:09;;;;;;;;;;;;;;;28.39;100.00;97977.94;4826098;29;19952;-71
2022/06/29 11:05:37;;;;;;;;;;;;;;;28.22;100.00;97976.44;4826481;29;19956;-71
2022/06/29 11:13:30;;;;;;;;;;;;;;;28.07;100.00;97973.81;4827082;29;19952;-71
2022/06/29 11:15:59;;;;;;;;;;;;;;;28.24;100.00;97973.81;4826337;29;20312;-71
2022/06/29 11:18:29;;;;;;;;;;;;;;;28.02;100.00;97976.69;4813756;29;19955;-70
2022/06/29 11:21:02;;;;;;;;;;;;;;;27.81;100.00;97959.69;4819925;29;20077;-70
2022/06/29 11:23:31;;;;;;;;;;;;;;;28.04;100.00;97966.25;4826575;29;19952;-70
2022/06/29 11:25:59;;;;;;;;;;;;;;;28.20;100.00;97962.56;4821620;29;19955;-70
2022/06/29 11:28:28;;;;;;;;;;;;;;;28.25;100.00;97964.63;4826274;29;20263;-70
2022/06/29 11:31:05;;;;;;;;;;;;;;;28.09;100.00;97951.09;4819249;29;19963;-70
2022/06/29 11:33:33;;;;;;;;;;;;;;;28.06;100.00;97951.34;4797250;29;19948;-70
2022/06/29 11:36:07;;;;;;;;;;;;;;;28.12;100.00;97947.16;4819285;29;20443;-70
2022/06/29 11:38:39;;;;;;;;;;;;;;;28.17;100.00;97946.34;4824649;29;20252;-71
2022/06/29 11:41:10;;;;;;;;;;;;;;;28.34;100.00;97946.34;4821976;29;19965;-71
2022/06/29 11:44:00;;;;;;;;;;;;;;;28.46;100.00;97950.75;4812449;29;20236;-71
2022/06/29 11:46:30;;;;;;;;;;;;;;;28.60;100.00;97955.44;4817370;29;19956;-71
2022/06/29 11:51:50;;;;;;;;;;;;;;;28.50;100.00;97949.16;4811892;29;19960;-70
2022/06/29 11:54:18;;;;;;;;;;;;;;;28.67;100.00;97951.22;4810771;29;19948;-71
2022/06/29 11:56:46;;;;;;;;;;;;;;;28.62;100.00;97947.84;4819718;29;19953;-70
2022/06/29 11:59:16;;;;;;;;;;;;;;;28.62;100.00;97941.28;4813362;29;19953;-70
2022/06/29 12:01:51;;;;;;;;;;;;;;;28.68;100.00;97939.19;4828595;29;19962;-70
2022/06/29 12:04:29;;;;;;;;;;;;;;;28.54;100.00;97943.91;4823243;29;19952;-71
2022/06/29 12:07:02;;;;;;;;;;;;;;;28.43;100.00;97937.41;4818870;29;20005;-71
2022/06/29 12:09:30;;;;;;;;;;;;;;;28.66;100.00;97926.66;4822315;29;20375;-71
2022/06/29 12:11:57;;;;;;;;;;;;;;;28.76;100.00;97936.53;4820488;29;20279;-71
2022/06/29 12:14:24;;;;;;;;;;;;;;;28.78;100.00;97942.53;4825877;29;19963;-69
2022/06/29 12:16:51;;;;;;;;;;;;;;;28.77;100.00;97946.72;4816210;29;19949;-71
2022/06/29 12:19:19;;;;;;;;;;;;;;;28.55;100.00;97936.06;4811075;29;19951;-71
2022/06/29 12:21:46;;;;;;;;;;;;;;;28.60;100.00;97941.84;4812253;29;20372;-71
2022/06/29 12:24:15;;;;;;;;;;;;;;;28.77;100.00;97947.50;4808811;29;20468;-71
2022/06/29 12:26:43;;;;;;;;;;;;;;;28.73;100.00;97955.66;4814364;29;19960;-71
2022/06/29 12:29:11;;;;;;;;;;;;;;;28.62;100.00;97947.84;4815313;29;19985;-71
2022/06/29 12:31:38;;;;;;;;;;;;;;;28.46;100.00;97954.38;4823583;29;19950;-71
2022/06/29 12:34:07;;;;;;;;;;;;;;;28.36;100.00;97950.25;4823468;29;19958;-78
2022/06/29 12:36:46;;;;;;;;;;;;;;;28.18;100.00;97944.25;4812760;29;19947;-72
2022/06/29 12:39:13;;;;;;;;;;;;;;;28.20;100.00;97945.31;4818028;29;20338;-72
2022/06/29 12:41:40;;;;;;;;;;;;;;;28.33;100.00;97950.50;4828076;29;19969;-72
2022/06/29 12:44:09;;;;;;;;;;;;;;;28.42;100.00;97951.00;4826323;29;19949;-72
2022/06/29 12:46:39;;;;;;;;;;;;;;;28.46;100.00;97950.75;4822447;29;19948;-71
2022/06/29 12:49:06;;;;;;;;;;;;;;;28.49;100.00;97955.41;4828207;29;19951;-72
2022/06/29 12:51:33;;;;;;;;;;;;;;;28.41;100.00;97954.41;4812140;29;19951;-72
2022/06/29 12:54:00;;;;;;;;;;;;;;;28.26;100.00;97946.09;4817170;29;19962;-72
2022/06/29 12:56:28;;;;;;;;;;;;;;;28.32;100.00;97943.19;4817610;29;20019;-71
2022/06/29 12:58:55;;;;;;;;;;;;;;;28.33;100.00;97948.41;4816484;29;19945;-71
2022/06/29 13:01:23;;;;;;;;;;;;;;;28.25;100.00;97952.34;4811921;29;20373;-71
2022/06/29 13:03:50;;;;;;;;;;;;;;;28.13;100.00;97951.59;4815081;29;19971;-71
2022/06/29 13:06:17;;;;;;;;;;;;;;;28.13;100.00;97942.97;4821836;29;19958;-70
2022/06/29 13:08:44;;;;;;;;;;;;;;;28.18;100.00;97947.94;4818139;29;19973;-70
2022/06/29 13:11:12;;;;;;;;;;;;;;;28.16;100.00;97944.00;4827504;29;19957;-71
2022/06/29 13:13:40;;;;;;;;;;;;;;;28.25;100.00;97947.38;4836394;29;19982;-71
2022/06/29 13:16:08;;;;;;;;;;;;;;;28.37;100.00;97943.16;4827564;29;19955;-70
2022/06/29 13:18:36;;;;;;;;;;;;;;;28.47;100.00;97940.78;4821920;29;19948;-70
2022/06/29 13:21:03;;;;;;;;;;;;;;;28.54;100.00;97946.78;4817804;29;19966;-70
2022/06/29 13:23:30;;;;;;;;;;;;;;;28.64;100.00;97939.44;4826519;29;19954;-71
2022/06/29 13:25:58;;;;;;;;;;;;;;;28.74;100.00;97936.25;4822792;29;19948;-71
2022/06/29 13:28:27;;;;;;;;;;;;;;;28.68;100.00;97939.19;4827596;29;20330;-71
2022/06/29 13:30:55;;;;;;;;;;;;;;;28.62;100.00;97944.97;4829631;29;19974;-71
2022/06/29 13:33:22;;;;;;;;;;;;;;;28.61;100.00;97939.75;4825698;29;19945;-71
2022/06/29 13:35:49;;;;;;;;;;;;;;;28.60;100.00;97935.28;4825257;29;19955;-71
2022/06/29 13:38:17;;;;;;;;;;;;;;;28.72;100.00;97941.78;4824396;29;19952;-71
2022/06/29 13:40:45;;;;;;;;;;;;;;;28.78;100.00;97940.47;4813831;29;19963;-71
2022/06/29 13:43:12;;;;;;;;;;;;;;;28.84;100.00;97941.19;4823526;29;19956;-71
2022/06/29 13:45:40;;;;;;;;;;;;;;;28.92;100.00;97950.84;4827773;29;20009;-71
2022/06/29 13:48:08;;;;;;;;;;;;;;;28.94;100.00;97953.19;4817871;29;20004;-71
2022/06/29 13:50:36;;;;;;;;;;;;;;;28.93;100.00;97937.25;4822082;29;20260;-71
2022/06/29 13:53:03;;;;;;;;;;;;;;;28.91;100.00;97945.59;4827483;29;19952;-71
2022/06/29 13:55:30;;;;;;;;;;;;;;;28.85;100.00;97937.03;4827404;29;19961;-71
2022/06/29 13:57:58;;;;;;;;;;;;;;;28.88;100.00;97938.81;4823759;29;19952;-71
2022/06/29 14:00:25;;;;;;;;;;;;;;;28.95;100.00;97934.63;4820998;29;19951;-71
2022/06/29 14:02:52;;;;;;;;;;;;;;;29.02;100.00;97936.94;4807690;29;19962;-71
2022/06/29 14:05:20;;;;;;;;;;;;;;;29.06;100.00;97932.44;4826814;29;19955;-71
2022/06/29 14:07:47;;;;;;;;;;;;;;;29.04;100.00;97934.31;4827123;29;20025;-71
2022/06/29 14:10:34;;;;;;;;;;;;;;;29.01;100.00;97930.38;4806396;29;19957;-71
2022/06/29 14:13:02;;;;;;;;;;;;;;;28.98;100.00;97930.66;4804697;29;19955;-71
2022/06/29 14:15:29;;;;;;;;;;;;;;;28.99;100.00;97944.53;4808229;29;19955;-71
2022/06/29 14:17:56;;;;;;;;;;;;;;;28.93;100.00;97935.13;4797114;29;19948;-70
2022/06/29 14:20:23;;;;;;;;;;;;;;;28.94;100.00;97933.81;4799070;29;19959;-70
2022/06/29 14:22:52;;;;;;;;;;;;;;;28.93;100.00;97937.25;4805527;29;19972;-70
2022/06/29 14:25:19;;;;;;;;;;;;;;;28.93;100.00;97940.88;4808106;29;19954;-70
2022/06/29 14:27:46;;;;;;;;;;;;;;;28.88;100.00;97938.06;4803030;29;20231;-71
2022/06/29 14:30:14;;;;;;;;;;;;;;;28.88;100.00;97930.19;4806827;29;19951;-71
2022/06/29 14:32:41;;;;;;;;;;;;;;;28.87;100.00;97928.63;4801439;29;19948;-71
2022/06/29 14:35:09;;;;;;;;;;;;;;;28.88;100.00;97935.19;4787971;29;19948;-71
2022/06/29 14:37:36;;;;;;;;;;;;;;;28.78;100.00;97937.59;4808768;29;20246;-71
2022/06/29 14:40:04;;;;;;;;;;;;;;;28.82;100.00;97932.31;4805934;29;19957;-71
2022/06/29 14:42:33;;;;;;;;;;;;;;;28.79;100.00;97935.47;4806437;29;19962;-71
2022/06/29 14:45:00;;;;;;;;;;;;;;;28.83;100.00;97922.34;4808912;29;19953;-71
2022/06/29 14:47:27;;;;;;;;;;;;;;;28.79;100.00;97926.81;4805413;29;19993;-71
2022/06/29 14:49:55;;;;;;;;;;;;;;;28.81;100.00;97922.09;4808728;29;19952;-71
2022/06/29 14:52:22;;;;;;;;;;;;;;;28.86;100.00;97926.28;4808077;29;19980;-71
2022/06/29 14:54:49;;;;;;;;;;;;;;;28.86;100.00;97929.94;4809187;29;20339;-70
2022/06/29 14:57:17;;;;;;;;;;;;;;;28.87;100.00;97919.22;4804598;29;19952;-71
2022/06/29 14:59:44;;;;;;;;;;;;;;;28.83;100.00;97910.09;4809736;29;19962;-71
2022/06/29 15:02:12;;;;;;;;;;;;;;;28.85;100.00;97908.25;4806685;29;19964;-71
2022/06/29 15:04:39;;;;;;;;;;;;;;;28.77;100.00;97917.94;4809018;29;19960;-71
2022/06/29 15:07:06;;;;;;;;;;;;;;;28.67;100.00;97914.59;4808650;29;19945;-71
2022/06/29 15:09:34;;;;;;;;;;;;;;;28.64;100.00;97909.88;4821517;29;19979;-71
2022/06/29 15:12:02;;;;;;;;;;;;;;;28.56;100.00;97911.75;4826315;29;19947;-71
2022/06/29 15:14:30;;;;;;;;;;;;;;;28.60;100.00;97909.41;4826263;29;19951;-71
2022/06/29 15:16:58;;;;;;;;;;;;;;;28.54;100.00;97905.72;4827113;29;19947;-71
2022/06/29 15:19:25;;;;;;;;;;;;;;;28.52;100.00;97909.13;4821984;29;19960;-71
2022/06/29 15:21:52;;;;;;;;;;;;;;;28.44;100.00;97901.59;4826711;29;20361;-70
2022/06/29 15:24:20;;;;;;;;;;;;;;;28.32;100.00;97902.91;4825761;29;19954;-70
2022/06/29 15:26:47;;;;;;;;;;;;;;;28.26;100.00;97902.16;4826070;29;19957;-70
2022/06/29 15:29:16;;;;;;;;;;;;;;;28.15;100.00;97893.56;4820533;29;19950;-71
2022/06/29 15:31:44;;;;;;;;;;;;;;;28.23;100.00;97892.50;4810809;29;20244;-71
2022/06/29 15:39:46;;;;;;;;;;;;;;;28.18;100.00;97881.00;4808884;29;19959;-71
2022/06/29 15:42:14;;;;;;;;;;;;;;;28.20;100.00;97882.03;4818644;29;19966;-71
2022/06/29 15:44:41;;;;;;;;;;;;;;;28.13;100.00;97876.84;4821517;29;19958;-71
2022/06/29 15:47:09;;;;;;;;;;;;;;;28.10;100.00;97885.75;4813681;29;19986;-71
2022/06/29 15:49:36;;;;;;;;;;;;;;;28.05;100.00;97881.56;4818458;29;19958;-70
2022/06/29 15:52:04;;;;;;;;;;;;;;;28.01;100.00;97886.81;4814845;29;19954;-70
2022/06/29 15:57:17;;;;;;;;;;;;;;;27.85;100.00;97887.59;4825887;29;19948;-72
2022/06/29 15:59:45;;;;;;;;;;;;;;;27.82;100.00;97886.56;4824186;29;19952;-71
2022/06/29 16:02:12;;;;;;;;;;;;;;;27.80;100.00;97883.41;4813993;29;19965;-70
2022/06/29 16:04:39;;;;;;;;;;;;;;;27.71;100.00;97883.69;4829297;29;19959;-70
2022/06/29 16:07:07;;;;;;;;;;;;;;;27.66;100.00;97884.47;4826494;29;19952;-69
2022/06/29 16:09:34;;;;;;;;;;;;;;;27.68;100.00;97878.97;4821188;29;19969;-68
2022/06/29 16:12:07;;;;;;;;;;;;;;;27.57;100.00;97876.13;4821155;29;19975;-68
2022/06/29 16:14:35;;;;;;;;;;;;;;;27.55;100.00;97875.88;4819041;29;19949;-70
2022/06/29 16:17:03;;;;;;;;;;;;;;;27.58;100.00;97880.56;4818620;29;19947;-79
2022/06/29 16:19:31;;;;;;;;;;;;;;;27.54;100.00;97877.16;4821974;29;19959;-72
2022/06/29 16:22:03;;;;;;;;;;;;;;;27.50;100.00;97870.91;4817753;29;19946;-72
2022/06/29 16:24:31;;;;;;;;;;;;;;;27.47;100.00;97877.69;4821650;29;19955;-72
2022/06/29 16:26:58;;;;;;;;;;;;;;;27.46;100.00;97873.28;4821724;29;19958;-72
2022/06/29 16:29:25;;;;;;;;;;;;;;;27.44;100.00;97877.97;4824232;29;19952;-71
2022/06/29 16:31:52;;;;;;;;;;;;;;;27.40;100.00;97872.47;4828880;29;20493;-71
2022/06/29 16:34:20;;;;;;;;;;;;;;;27.33;100.00;97872.97;4829187;29;20258;-71
2022/06/29 16:36:47;;;;;;;;;;;;;;;27.32;100.00;97874.25;4821193;29;19952;-70
2022/06/29 16:39:15;;;;;;;;;;;;;;;27.30;100.00;97874.00;4819829;29;19948;-70
2022/06/29 16:41:42;;;;;;;;;;;;;;;27.23;100.00;97871.66;4826827;29;19948;-70
2022/06/29 16:44:10;;;;;;;;;;;;;;;27.16;100.00;97867.22;4829030;29;19964;-71
2022/06/29 16:46:37;;;;;;;;;;;;;;;27.08;100.00;97868.22;4820914;29;20369;-71
2022/06/29 16:49:04;;;;;;;;;;;;;;;27.02;100.00;97871.09;4821314;29;20234;-71
2022/06/29 16:51:32;;;;;;;;;;;;;;;27.08;100.00;97865.38;4817382;29;19958;-71
2022/06/29 16:54:04;;;;;;;;;;;;;;;27.02;100.00;97855.97;4826191;29;19949;-71
2022/06/29 16:56:31;;;;;;;;;;;;;;;26.94;100.00;97864.31;4827958;29;19991;-70
2022/06/29 16:58:58;;;;;;;;;;;;;;;26.93;100.00;97873.41;4827005;29;19955;-70
2022/06/29 17:01:25;;;;;;;;;;;;;;;26.92;100.00;97872.66;4822797;29;19963;-71
2022/06/29 17:03:52;;;;;;;;;;;;;;;26.89;100.00;97870.81;4818711;29;19969;-72
2022/06/29 17:06:20;;;;;;;;;;;;;;;26.82;100.00;97862.72;4802099;29;19958;-72
2022/06/29 17:08:47;;;;;;;;;;;;;;;26.81;100.00;97860.34;4819352;29;19973;-72
2022/06/29 17:11:15;;;;;;;;;;;;;;;26.76;100.00;97864.78;4819193;29;19952;-72
2022/06/29 17:13:42;;;;;;;;;;;;;;;26.73;100.00;97865.78;4818466;29;19945;-71
2022/06/29 17:16:10;;;;;;;;;;;;;;;26.74;100.00;97861.63;4819050;29;19952;-70
2022/06/29 17:18:37;;;;;;;;;;;;;;;26.67;100.00;97860.06;4815177;29;19959;-71
2022/06/29 17:21:04;;;;;;;;;;;;;;;26.62;100.00;97871.50;4821642;29;19949;-70
2022/06/29 17:23:31;;;;;;;;;;;;;;;26.63;100.00;97868.09;4818100;29;19969;-71
2022/06/29 17:26:00;;;;;;;;;;;;;;;26.60;100.00;97868.38;4826790;29;19956;-71
2022/06/29 17:28:28;;;;;;;;;;;;;;;26.57;100.00;97864.44;4827625;29;19950;-71
2022/06/29 17:30:55;;;;;;;;;;;;;;;26.53;100.00;97871.75;4828314;29;19968;-70
2022/06/29 17:33:22;;;;;;;;;;;;;;;26.53;100.00;97869.63;4827878;29;19954;-70
2022/06/29 17:35:50;;;;;;;;;;;;;;;26.49;100.00;97874.84;4812382;29;19955;-70
2022/06/29 17:38:19;;;;;;;;;;;;;;;26.36;100.00;97865.16;4827443;29;19974;-70
2022/06/29 17:40:47;;;;;;;;;;;;;;;26.34;100.00;97865.66;4828306;29;19950;-70
2022/06/29 17:43:14;;;;;;;;;;;;;;;26.31;100.00;97866.66;4828619;29;20259;-70
2022/06/29 17:45:41;;;;;;;;;;;;;;;26.29;100.00;97857.81;4811703;29;19955;-70
2022/06/29 17:48:11;;;;;;;;;;;;;;;26.26;100.00;97850.25;4827320;29;19950;-70
2022/06/29 17:50:39;;;;;;;;;;;;;;;26.20;100.00;97848.66;4829886;29;19951;-70
2022/06/29 17:53:06;;;;;;;;;;;;;;;26.13;100.00;97852.00;4828034;29;19948;-70
2022/06/29 17:55:33;;;;;;;;;;;;;;;26.10;100.00;97853.78;4826156;29;19977;-71
2022/06/29 17:58:01;;;;;;;;;;;;;;;26.07;100.00;97858.47;4822533;29;20332;-71
2022/06/29 18:00:29;;;;;;;;;;;;;;;26.06;100.00;97847.53;4827711;29;19949;-71
2022/06/29 18:02:56;;;;;;;;;;;;;;;26.03;100.00;97845.69;4812255;29;19963;-71
2022/06/29 18:05:23;;;;;;;;;;;;;;;25.97;100.00;97847.72;4819743;29;19952;-70
2022/06/29 18:07:51;;;;;;;;;;;;;;;25.97;100.00;97859.97;4809824;29;19982;-71
2022/06/29 18:10:18;;;;;;;;;;;;;;;25.93;100.00;97850.03;4809896;29;19947;-71
2022/06/29 18:12:45;;;;;;;;;;;;;;;25.86;100.00;97854.19;4810225;29;19948;-71
2022/06/29 18:15:12;;;;;;;;;;;;;;;25.83;100.00;97852.34;4809798;29;19955;-71
2022/06/29 18:17:40;;;;;;;;;;;;;;;25.74;100.00;97858.28;4822740;29;20340;-71
2022/06/29 18:20:08;;;;;;;;;;;;;;;25.73;100.00;97853.03;4827263;29;19960;-71
2022/06/29 18:22:35;;;;;;;;;;;;;;;25.71;100.00;97849.91;4828041;29;19958;-70
2022/06/29 18:25:02;;;;;;;;;;;;;;;25.64;100.00;97848.31;4826932;29;19964;-70
2022/06/29 18:27:30;;;;;;;;;;;;;;;25.56;100.00;97852.13;4827228;29;20336;-70
2022/06/29 18:29:57;;;;;;;;;;;;;;;25.55;100.00;97839.94;4827820;29;19953;-70
2022/06/29 18:32:25;;;;;;;;;;;;;;;25.52;100.00;97849.53;4827215;29;19949;-70
2022/06/29 18:34:52;;;;;;;;;;;;;;;25.49;100.00;97850.53;4827739;29;19954;-70
2022/06/29 18:37:19;;;;;;;;;;;;;;;25.37;100.00;97852.50;4827392;29;19948;-70
2022/06/29 18:39:48;;;;;;;;;;;;;;;25.24;100.00;97849.28;4824353;29;19948;-70
2022/06/29 18:42:15;;;;;;;;;;;;;;;25.20;100.00;97850.78;4821898;29;19952;-71
2022/06/29 18:44:43;;;;;;;;;;;;;;;25.13;100.00;97852.06;4825351;29;20271;-70
2022/06/29 18:47:10;;;;;;;;;;;;;;;25.09;100.00;97853.56;4826626;29;19959;-70
2022/06/29 18:49:38;;;;;;;;;;;;;;;24.97;100.00;97855.53;4825911;29;19959;-70
2022/06/29 18:52:05;;;;;;;;;;;;;;;24.89;100.00;97862.22;4818282;29;19963;-70
2022/06/29 18:54:32;;;;;;;;;;;;;;;24.79;100.00;97867.31;4826455;29;19951;-70
2022/06/29 18:56:59;;;;;;;;;;;;;;;24.71;100.00;97866.16;4826966;29;19963;-70
2022/06/29 18:59:27;;;;;;;;;;;;;;;24.66;100.00;97866.88;4826650;29;19950;-70
2022/06/29 19:01:54;;;;;;;;;;;;;;;24.60;100.00;97863.94;4826853;29;19959;-70
2022/06/29 19:04:21;;;;;;;;;;;;;;;24.58;100.00;97872.25;4822204;29;19964;-71
2022/06/29 19:06:49;;;;;;;;;;;;;;;24.53;100.00;97872.19;4826835;29;20326;-70
2022/06/29 19:09:17;;;;;;;;;;;;;;;24.50;100.00;97876.81;4827272;29;19970;-70
2022/06/29 19:11:51;;;;;;;;;;;;;;;24.51;100.00;97880.47;4826736;29;19960;-71
2022/06/29 19:14:19;;;;;;;;;;;;;;;24.44;100.00;97884.56;4826800;29;19956;-70
2022/06/29 19:16:46;;;;;;;;;;;;;;;24.34;100.00;97880.28;4826446;29;19952;-70
2022/06/29 19:19:14;;;;;;;;;;;;;;;24.29;100.00;97883.84;4827347;29;20000;-71